Time;durP1;ratioP1;P1;durP2;ratioP2;P2;SDS_P1;SDS_P2;PMS_P1;PMS_P2;Temp;Humidity;BMP_temperature;BMP_pressure;BME280_temperature;BME280_humidity;BME280_pressure;Samples;Min_cycle;Max_cycle;Signal;HPM_P1;HPM_P2
2023/10/26 00:02:05;;;;;;;1.93;0.50;;;;;;;-145.69;56.63;52240.41;5075493;28;20998;-86
2023/10/26 00:04:32;;;;;;;1.70;0.57;;;;;;;-145.69;56.63;52218.63;5074589;28;20241;-87
2023/10/26 00:07:00;;;;;;;3.53;0.60;;;;;;;-145.69;56.35;52254.28;5076147;28;20197;-86
2023/10/26 00:09:27;;;;;;;0.50;0.50;;;;;;;-145.69;56.00;52240.41;5086779;28;20195;-86
2023/10/26 00:11:55;;;;;;;0.50;0.50;;;;;;;-145.69;55.63;52226.53;5095697;28;20221;-86
2023/10/26 00:14:21;;;;;;;0.93;0.50;;;;;;;-145.69;55.67;52218.63;5095888;28;20202;-86
2023/10/26 00:16:48;;;;;;;1.70;1.00;;;;;;;-145.69;55.21;52214.66;5096026;28;20210;-86
2023/10/26 00:19:14;;;;;;;0.60;0.60;;;;;;;-145.69;55.14;52214.66;5095939;28;20205;-87
2023/10/26 00:21:41;;;;;;;0.40;0.40;;;;;;;-145.69;55.29;52232.50;5095906;28;20248;-87
2023/10/26 00:24:09;;;;;;;0.93;0.60;;;;;;;-145.69;55.65;52236.44;5095137;28;20205;-87
2023/10/26 00:26:35;;;;;;;2.93;0.70;;;;;;;-145.69;55.31;52190.91;5095666;28;20198;-85
2023/10/26 00:29:03;;;;;;;2.70;0.70;;;;;;;-145.69;55.63;52220.59;5095517;28;20209;-86
2023/10/26 00:31:29;;;;;;;1.50;0.70;;;;;;;-145.69;55.63;52232.50;5093691;28;20222;-86
2023/10/26 00:33:56;;;;;;;1.43;0.70;;;;;;;-145.69;55.48;52210.72;5078065;28;20225;-86
2023/10/26 00:36:22;;;;;;;0.60;0.60;;;;;;;-145.69;55.81;52218.63;5075493;28;20650;-86
2023/10/26 00:38:49;;;;;;;1.57;0.57;;;;;;;-145.69;55.79;52222.59;5086585;28;20202;-86
2023/10/26 00:41:15;;;;;;;1.63;0.60;;;;;;;-145.69;55.97;52208.72;5078215;28;20205;-87
2023/10/26 00:43:42;;;;;;;1.03;0.50;;;;;;;-145.69;56.08;52260.22;5074628;28;20313;-85
2023/10/26 00:46:11;;;;;;;3.07;0.70;;;;;;;-145.69;56.50;52230.50;5075043;28;20199;-86
2023/10/26 00:48:38;;;;;;;3.23;0.60;;;;;;;-145.69;56.65;52206.75;5074632;28;20198;-85
2023/10/26 00:51:05;;;;;;;1.07;0.60;;;;;;;-145.69;56.88;52232.50;5074687;28;20257;-85
2023/10/26 00:53:33;;;;;;;0.50;0.50;;;;;;;-145.69;57.78;52236.44;5074480;28;20205;-86
2023/10/26 00:56:00;;;;;;;2.07;0.60;;;;;;;-145.69;57.58;52188.91;5074708;28;20656;-86
2023/10/26 00:58:27;;;;;;;3.03;0.80;;;;;;;-145.69;58.07;52230.50;5073408;28;20213;-87
2023/10/26 01:00:54;;;;;;;4.27;0.70;;;;;;;-145.69;57.64;52238.44;5074961;28;20210;-86
2023/10/26 01:03:24;;;;;;;1.43;0.60;;;;;;;-145.69;57.63;52234.47;5063894;28;20210;-86
2023/10/26 01:05:51;;;;;;;1.40;0.60;;;;;;;-145.69;57.85;52266.16;5054402;28;20199;-87
2023/10/26 01:08:17;;;;;;;1.53;0.80;;;;;;;-145.69;58.43;52246.34;5085791;28;20879;-85
2023/10/26 01:10:44;;;;;;;0.87;0.60;;;;;;;-145.69;58.09;52228.53;5078401;28;20194;-85
2023/10/26 01:13:11;;;;;;;2.67;0.73;;;;;;;-145.69;58.43;52224.56;5085459;28;20194;-86
2023/10/26 01:15:37;;;;;;;3.00;0.60;;;;;;;-145.69;58.62;52230.50;5074900;28;20199;-87
2023/10/26 01:18:04;;;;;;;1.60;0.60;;;;;;;-145.69;58.41;52218.63;5074539;28;20199;-86
2023/10/26 01:20:32;;;;;;;0.87;0.50;;;;;;;-145.69;58.63;52212.69;5074267;28;20198;-86
2023/10/26 01:23:00;;;;;;;8.23;1.10;;;;;;;-145.69;58.73;52242.38;5074540;28;20203;-86
2023/10/26 01:25:26;;;;;;;2.50;0.70;;;;;;;-145.69;58.64;52238.44;5074240;28;20597;-86
2023/10/26 01:27:53;;;;;;;1.27;0.70;;;;;;;-145.69;58.55;52236.44;5074144;28;20198;-85
2023/10/26 01:30:19;;;;;;;3.13;0.63;;;;;;;-145.69;59.11;52266.16;5072816;28;20202;-86
2023/10/26 01:32:46;;;;;;;1.23;0.60;;;;;;;-145.69;59.00;52226.53;5075380;28;20219;-85
2023/10/26 01:35:12;;;;;;;3.23;0.53;;;;;;;-145.69;58.86;52254.28;5073861;28;20646;-86
2023/10/26 01:37:39;;;;;;;2.37;0.60;;;;;;;-145.69;59.04;52214.66;5073986;28;20205;-86
2023/10/26 01:40:10;;;;;;;1.70;0.60;;;;;;;-145.69;58.88;52226.53;5073774;28;20202;-86
2023/10/26 01:42:37;;;;;;;4.73;0.67;;;;;;;-145.69;59.66;52258.22;5077374;28;20264;-86
2023/10/26 01:45:04;;;;;;;5.90;0.80;;;;;;;-145.69;59.04;52216.66;5086445;28;20557;-86
2023/10/26 01:47:30;;;;;;;2.73;0.63;;;;;;;-145.69;59.18;52240.41;5094992;28;20198;-86
2023/10/26 01:49:59;;;;;;;1.13;0.60;;;;;;;-145.69;59.24;52216.66;5094226;28;20209;-86
2023/10/26 01:52:25;;;;;;;0.80;0.57;;;;;;;-145.69;59.49;52234.47;5093837;28;20572;-85
2023/10/26 01:54:52;;;;;;;3.63;0.70;;;;;;;-145.69;59.49;52220.59;5088786;28;20294;-85
2023/10/26 01:57:20;;;;;;;1.00;0.60;;;;;;;-145.69;59.70;52252.28;5094085;28;20588;-85
2023/10/26 01:59:46;;;;;;;1.20;0.50;;;;;;;-145.69;59.60;52254.28;5093667;28;20240;-85
2023/10/26 02:02:13;;;;;;;1.87;0.80;;;;;;;-145.69;60.20;52274.06;5094218;28;20206;-85
2023/10/26 02:04:39;;;;;;;1.33;0.60;;;;;;;-145.69;60.19;52234.47;5093966;28;20202;-86
2023/10/26 02:07:06;;;;;;;1.40;0.67;;;;;;;-145.69;60.54;52246.34;5093959;28;20205;-85
2023/10/26 02:09:32;;;;;;;2.00;0.63;;;;;;;-145.69;60.36;52266.16;5093836;28;20206;-85
2023/10/26 02:11:59;;;;;;;2.00;0.53;;;;;;;-145.69;60.82;52242.38;5093562;28;20232;-86
2023/10/26 02:14:27;;;;;;;2.40;0.90;;;;;;;-145.69;61.13;52236.44;5090807;28;20214;-86
2023/10/26 02:16:54;;;;;;;3.30;0.70;;;;;;;-145.69;61.17;52256.25;5073429;28;20646;-85
2023/10/26 02:19:20;;;;;;;2.20;0.70;;;;;;;-145.69;61.13;52234.47;5073236;28;20202;-85
2023/10/26 02:21:46;;;;;;;2.33;0.73;;;;;;;-145.69;61.68;52236.44;5073617;28;20798;-85
2023/10/26 02:24:13;;;;;;;2.33;0.67;;;;;;;-145.69;61.17;52248.34;5073313;28;20206;-84
2023/10/26 02:26:39;;;;;;;1.70;0.50;;;;;;;-145.69;61.17;52258.22;5090937;28;20202;-85
2023/10/26 02:29:06;;;;;;;4.50;0.90;;;;;;;-145.69;61.97;52248.34;5093412;28;20205;-85
2023/10/26 02:31:34;;;;;;;1.90;0.60;;;;;;;-145.69;61.94;52238.44;5093716;28;20249;-85
2023/10/26 02:34:00;;;;;;;1.10;0.80;;;;;;;-145.69;62.09;52260.22;5093378;28;20601;-85
2023/10/26 02:36:27;;;;;;;2.00;0.70;;;;;;;-145.69;61.93;52248.34;5093573;28;20198;-85
2023/10/26 02:38:53;;;;;;;2.37;0.83;;;;;;;-145.69;62.28;52246.34;5093351;28;20198;-85
2023/10/26 02:41:20;;;;;;;1.23;0.63;;;;;;;-145.69;62.52;52274.06;5093414;28;20206;-86
2023/10/26 02:43:46;;;;;;;3.30;0.70;;;;;;;-145.69;62.87;52276.06;5093197;28;20235;-85
2023/10/26 02:46:13;;;;;;;2.37;0.70;;;;;;;-145.69;63.14;52276.06;5077763;28;20195;-86
2023/10/26 02:48:41;;;;;;;4.30;0.60;;;;;;;-145.69;62.79;52293.88;5077038;28;20612;-85
2023/10/26 02:51:07;;;;;;;0.87;0.60;;;;;;;-145.69;62.69;52278.03;5077142;28;20215;-85
2023/10/26 02:53:34;;;;;;;0.70;0.70;;;;;;;-145.69;62.91;52260.22;5070845;28;20289;-86
2023/10/26 02:56:00;;;;;;;1.37;0.87;;;;;;;-145.69;63.31;52278.03;5086588;28;20228;-85
2023/10/26 02:58:27;;;;;;;0.87;0.60;;;;;;;-145.69;63.52;52266.16;5097190;28;20195;-86
2023/10/26 03:00:54;;;;;;;0.73;0.60;;;;;;;-145.69;63.63;52254.28;5097121;28;20209;-85
2023/10/26 03:03:20;;;;;;;5.10;0.80;;;;;;;-145.69;63.72;52258.22;5097254;28;20645;-85
2023/10/26 03:05:48;;;;;;;4.73;0.80;;;;;;;-145.69;63.66;52283.97;5096959;28;20213;-86
2023/10/26 03:08:15;;;;;;;3.37;0.93;;;;;;;-145.69;64.80;52244.38;5097327;28;20210;-85
2023/10/26 03:10:41;;;;;;;2.47;0.73;;;;;;;-145.69;64.06;52270.13;5097170;28;20194;-86
2023/10/26 03:13:08;;;;;;;5.63;0.87;;;;;;;-145.69;64.83;52254.28;5096932;28;20225;-85
2023/10/26 03:15:35;;;;;;;0.93;0.60;;;;;;;-145.69;64.54;52270.13;5085285;28;20195;-85
2023/10/26 03:18:02;;;;;;;2.30;0.70;;;;;;;-145.69;64.81;52283.97;5076644;28;20199;-86
2023/10/26 03:20:28;;;;;;;2.20;0.70;;;;;;;-145.69;65.36;52252.28;5076388;28;20203;-86
2023/10/26 03:22:56;;;;;;;0.80;0.80;;;;;;;-145.69;64.96;52226.53;5076597;28;20199;-86
2023/10/26 03:25:23;;;;;;;1.90;0.70;;;;;;;-145.69;64.96;52266.16;5076502;28;20658;-85
2023/10/26 03:27:49;;;;;;;2.83;0.80;;;;;;;-145.69;65.44;52260.22;5076443;28;20203;-85
2023/10/26 03:30:17;;;;;;;1.87;0.97;;;;;;;-145.69;65.52;52250.31;5076313;28;20202;-85
2023/10/26 03:32:44;;;;;;;0.80;0.80;;;;;;;-145.69;65.53;52278.03;5076411;28;20233;-86
2023/10/26 03:35:11;;;;;;;1.57;0.50;;;;;;;-145.69;65.51;52258.22;5076594;28;20198;-85
2023/10/26 03:37:37;;;;;;;2.00;0.70;;;;;;;-145.69;65.49;52246.34;5089576;28;20676;-85
2023/10/26 03:40:07;;;;;;;4.13;1.00;;;;;;;-145.69;64.94;52250.31;5096705;28;20212;-85
2023/10/26 03:42:33;;;;;;;1.83;0.70;;;;;;;-145.69;64.91;52254.28;5096183;28;20225;-86
2023/10/26 03:45:03;;;;;;;1.53;0.70;;;;;;;-145.69;65.24;52244.38;5083306;28;20205;-85
2023/10/26 03:47:29;;;;;;;1.40;1.00;;;;;;;-145.69;64.83;52266.16;5076147;28;20202;-84
2023/10/26 03:49:56;;;;;;;1.70;0.93;;;;;;;-145.69;65.07;52258.22;5075745;28;20211;-86
2023/10/26 03:52:23;;;;;;;4.70;1.57;;;;;;;-145.69;64.97;52301.81;5075742;28;20673;-85
2023/10/26 03:54:49;;;;;;;2.17;1.00;;;;;;;-145.69;65.18;52254.28;5075678;28;20209;-86
2023/10/26 03:57:17;;;;;;;3.20;1.47;;;;;;;-145.69;64.91;52220.59;5075194;28;20198;-85
2023/10/26 03:59:44;;;;;;;1.37;1.00;;;;;;;-145.69;65.15;52238.44;5075734;28;20202;-85
2023/10/26 04:02:11;;;;;;;1.67;1.10;;;;;;;-145.69;65.06;52230.50;5075883;28;20209;-86
2023/10/26 04:04:37;;;;;;;5.23;1.10;;;;;;;-145.69;64.88;52242.38;5075695;28;20654;-85
2023/10/26 04:07:04;;;;;;;1.97;0.87;;;;;;;-145.69;64.90;52264.16;5075879;28;20581;-85
2023/10/26 04:09:30;;;;;;;1.80;0.90;;;;;;;-145.69;64.73;52248.34;5075949;28;20210;-85
2023/10/26 04:11:57;;;;;;;0.90;0.70;;;;;;;-145.69;65.04;52282.00;5075753;28;20231;-86
2023/10/26 04:14:25;;;;;;;2.10;0.67;;;;;;;-145.69;65.16;52262.19;5075938;28;20201;-86
2023/10/26 04:16:51;;;;;;;0.93;0.73;;;;;;;-145.69;64.99;52232.50;5075500;28;20201;-85
2023/10/26 04:19:18;;;;;;;2.17;0.80;;;;;;;-145.69;64.79;52262.19;5075646;28;20206;-85
2023/10/26 04:21:45;;;;;;;4.97;0.83;;;;;;;-145.69;65.06;52276.06;5086122;28;20273;-85
2023/10/26 04:24:11;;;;;;;2.27;1.00;;;;;;;-145.69;65.13;52274.06;5081677;28;20195;-85
2023/10/26 04:26:38;;;;;;;1.40;0.73;;;;;;;-145.69;65.02;52282.00;5075697;28;20649;-86
2023/10/26 04:29:05;;;;;;;1.23;0.80;;;;;;;-145.69;65.61;52264.16;5075554;28;20210;-86
2023/10/26 04:31:34;;;;;;;1.43;0.83;;;;;;;-145.69;64.94;52222.59;5075611;28;20207;-86
2023/10/26 04:34:01;;;;;;;2.97;1.03;;;;;;;-145.69;65.11;52250.31;5075359;28;20244;-85
2023/10/26 04:36:27;;;;;;;0.70;0.70;;;;;;;-145.69;65.29;52252.28;5075502;28;20202;-87
2023/10/26 04:38:57;;;;;;;0.90;0.70;;;;;;;-145.69;65.20;52262.19;5075384;28;20582;-87
2023/10/26 04:41:23;;;;;;;1.30;0.80;;;;;;;-145.69;65.33;52246.34;5075369;28;20203;-86
2023/10/26 04:43:53;;;;;;;3.67;0.77;;;;;;;-145.69;65.09;52244.38;5075014;28;20234;-84
2023/10/26 04:46:19;;;;;;;4.00;0.73;;;;;;;-145.69;65.07;52256.25;5075234;28;20581;-86
2023/10/26 04:48:47;;;;;;;0.70;0.70;;;;;;;-145.69;64.67;52276.06;5075266;28;20199;-86
2023/10/26 04:51:13;;;;;;;1.93;0.83;;;;;;;-145.69;64.96;52254.28;5081954;28;20198;-86
2023/10/26 04:53:40;;;;;;;1.90;0.70;;;;;;;-145.69;64.89;52266.16;5083438;28;20226;-86
2023/10/26 04:56:10;;;;;;;1.63;0.70;;;;;;;-145.69;64.60;52260.22;5074951;28;20202;-86
2023/10/26 04:58:37;;;;;;;1.97;0.97;;;;;;;-145.69;64.74;52254.28;5075170;28;20658;-87
2023/10/26 05:01:04;;;;;;;1.70;0.83;;;;;;;-145.69;64.45;52248.34;5075486;28;20198;-87
2023/10/26 05:03:31;;;;;;;0.70;0.60;;;;;;;-145.69;64.36;52226.53;5074605;28;20269;-86
2023/10/26 05:05:59;;;;;;;3.07;0.90;;;;;;;-145.69;64.26;52252.28;5075126;28;20558;-86
2023/10/26 05:08:25;;;;;;;1.00;0.70;;;;;;;-145.69;63.82;52246.34;5074304;28;20202;-85
2023/10/26 05:10:52;;;;;;;1.27;0.80;;;;;;;-145.69;64.01;52258.22;5074604;28;20206;-86
2023/10/26 05:13:18;;;;;;;0.50;0.45;;;;;;;-145.69;63.88;52272.09;5074232;28;20237;-86
2023/10/26 05:15:45;;;;;;;0.97;0.60;;;;;;;-145.69;64.26;52262.19;5074499;28;20553;-85
2023/10/26 05:18:11;;;;;;;1.98;0.70;;;;;;;-145.69;64.32;52266.16;5074413;28;20282;-86
2023/10/26 05:20:39;;;;;;;1.63;0.70;;;;;;;-145.69;64.59;52264.16;5075550;28;20209;-86
2023/10/26 05:23:08;;;;;;;4.20;1.30;;;;;;;-145.69;64.71;52250.31;5090794;28;20197;-86
2023/10/26 05:25:36;;;;;;;1.93;0.93;;;;;;;-145.69;64.89;52198.81;5093257;28;20591;-86
2023/10/26 05:28:03;;;;;;;5.17;1.00;;;;;;;-145.69;65.24;52252.28;5094207;28;20206;-85
2023/10/26 05:30:30;;;;;;;0.90;0.73;;;;;;;-145.69;65.35;52246.34;5094521;28;20316;-86
2023/10/26 05:32:56;;;;;;;1.90;0.90;;;;;;;-145.69;64.91;52246.34;5093137;28;20225;-86
2023/10/26 05:35:23;;;;;;;2.37;1.00;;;;;;;-145.69;64.86;52250.31;5094333;28;20221;-86
2023/10/26 05:37:49;;;;;;;2.20;0.73;;;;;;;-145.69;65.12;52222.59;5088616;28;20199;-87
2023/10/26 05:40:17;;;;;;;0.57;0.57;;;;;;;-145.69;65.44;52232.50;5074643;28;20574;-86
2023/10/26 05:42:44;;;;;;;0.63;0.50;;;;;;;-145.69;64.89;52220.59;5073976;28;20230;-86
2023/10/26 05:45:11;;;;;;;2.90;1.00;;;;;;;-145.69;65.33;52236.44;5074154;28;20210;-86
2023/10/26 05:47:38;;;;;;;2.47;0.80;;;;;;;-145.69;65.20;52270.13;5074106;28;20628;-87
2023/10/26 05:50:06;;;;;;;1.80;1.10;;;;;;;-145.69;65.03;52244.38;5073911;28;20618;-87
2023/10/26 05:52:33;;;;;;;3.85;0.90;;;;;;;-145.69;65.16;52224.56;5074100;28;20305;-87
2023/10/26 05:54:59;;;;;;;1.57;0.90;;;;;;;-145.69;65.15;52220.59;5091366;28;20202;-85
2023/10/26 05:57:28;;;;;;;0.97;0.77;;;;;;;-145.69;65.51;52234.47;5094467;28;20660;-86
2023/10/26 05:59:54;;;;;;;1.23;0.93;;;;;;;-145.69;65.48;52256.25;5093783;28;20198;-86
2023/10/26 06:02:21;;;;;;;3.27;0.87;;;;;;;-145.69;65.39;52246.34;5093761;28;20217;-86
2023/10/26 06:04:47;;;;;;;2.70;0.77;;;;;;;-145.69;65.35;52234.47;5093966;27;20205;-85
2023/10/26 06:07:14;;;;;;;2.50;1.00;;;;;;;-145.69;65.38;52230.50;5094760;28;20221;-87
2023/10/26 06:09:41;;;;;;;2.37;0.90;;;;;;;-145.69;65.81;52254.28;5093655;28;20296;-87
2023/10/26 06:12:08;;;;;;;1.05;0.60;;;;;;;-145.69;65.69;52236.44;5093825;28;20214;-86
2023/10/26 06:14:36;;;;;;;1.03;0.80;;;;;;;-145.69;66.03;52194.88;5093864;28;20205;-86
2023/10/26 06:17:03;;;;;;;2.53;0.82;;;;;;;-145.69;65.94;52222.59;5093881;28;20218;-86
2023/10/26 06:19:31;;;;;;;0.80;0.80;;;;;;;-145.69;65.55;52236.44;5093891;28;20201;-87
2023/10/26 06:21:58;;;;;;;2.83;0.63;;;;;;;-145.69;65.32;52260.22;5093173;28;20202;-87
2023/10/26 06:24:24;;;;;;;2.13;0.80;;;;;;;-145.69;64.96;52212.69;5093715;28;20201;-86
2023/10/26 06:26:51;;;;;;;0.68;0.60;;;;;;;-145.69;64.96;52250.31;5093836;28;20695;-86
2023/10/26 06:29:17;;;;;;;1.03;0.70;;;;;;;-145.69;64.71;52226.53;5093460;28;20198;-85
2023/10/26 06:31:46;;;;;;;1.17;0.80;;;;;;;-145.69;64.65;52256.25;5093609;28;20206;-85
2023/10/26 06:34:13;;;;;;;1.40;0.63;;;;;;;-145.69;64.70;52236.44;5093526;28;20222;-85
2023/10/26 06:36:40;;;;;;;0.73;0.50;;;;;;;-145.69;64.63;52214.66;5093459;28;20198;-85
2023/10/26 06:39:06;;;;;;;1.77;0.63;;;;;;;-145.69;64.50;52214.66;5084266;28;20232;-85
2023/10/26 06:41:33;;;;;;;0.97;0.60;;;;;;;-145.69;64.69;52202.78;5073217;28;20203;-85
2023/10/26 06:43:59;;;;;;;1.80;0.73;;;;;;;-145.69;64.39;52230.50;5072945;28;20711;-85
2023/10/26 06:46:26;;;;;;;0.80;0.70;;;;;;;-145.69;64.39;52200.81;5070636;28;20207;-86
2023/10/26 06:48:54;;;;;;;5.00;0.70;;;;;;;-145.69;64.11;52214.66;5073396;28;20212;-86
2023/10/26 06:51:20;;;;;;;0.70;0.50;;;;;;;-145.69;64.34;52175.06;5073027;28;20195;-85
2023/10/26 06:53:47;;;;;;;0.70;0.57;;;;;;;-145.69;64.29;52192.88;5074777;28;20226;-85
2023/10/26 06:56:14;;;;;;;0.57;0.50;;;;;;;-145.69;64.52;52226.53;5086464;28;20190;-83
2023/10/26 06:58:42;;;;;;;0.60;0.60;;;;;;;-145.69;64.49;52204.75;5093086;28;20202;-84
2023/10/26 07:01:08;;;;;;;0.65;0.60;;;;;;;-145.69;64.80;52240.41;5082247;28;20201;-85
2023/10/26 07:03:35;;;;;;;1.83;0.65;;;;;;;-145.69;64.54;52210.72;5072919;28;20670;-85
2023/10/26 07:06:04;;;;;;;0.50;0.50;;;;;;;-145.69;64.14;52230.50;5072906;28;20199;-85
2023/10/26 07:08:32;;;;;;;1.45;0.60;;;;;;;-145.69;64.83;52202.78;5073211;28;20199;-85
2023/10/26 07:10:59;;;;;;;0.65;0.57;;;;;;;-145.69;64.59;52228.53;5071729;28;20594;-85
2023/10/26 07:13:25;;;;;;;1.15;0.60;;;;;;;-145.69;64.74;52218.63;5072741;28;20582;-85
2023/10/26 07:15:52;;;;;;;0.63;0.50;;;;;;;-145.69;64.89;52192.88;5073993;28;20212;-85
2023/10/26 07:18:19;;;;;;;0.57;0.50;;;;;;;-145.69;64.97;52238.44;5072935;28;20552;-85
2023/10/26 07:20:48;;;;;;;0.75;0.52;;;;;;;-145.69;65.01;52212.69;5072858;28;20215;-86
2023/10/26 07:23:17;;;;;;;0.47;0.45;;;;;;;-145.69;64.25;52208.72;5075331;28;20713;-86
2023/10/26 07:25:43;;;;;;;0.40;0.40;;;;;;;-145.69;64.54;52194.88;5081862;28;20203;-86
2023/10/26 07:28:10;;;;;;;1.63;0.43;;;;;;;-145.69;64.53;52228.53;5079213;28;20195;-85
2023/10/26 07:30:39;;;;;;;1.15;0.45;;;;;;;-145.69;63.68;52200.81;5072658;28;20917;-85
2023/10/26 07:33:06;;;;;;;0.65;0.50;;;;;;;-145.69;64.36;52214.66;5075122;28;20315;-85
2023/10/26 07:35:34;;;;;;;6.10;0.40;;;;;;;-145.69;64.50;52240.41;5076272;28;20202;-86
2023/10/26 07:38:00;;;;;;;0.40;0.40;;;;;;;-145.69;64.49;52210.72;5076384;28;20297;-86
2023/10/26 07:40:28;;;;;;;0.47;0.47;;;;;;;-145.69;64.26;52234.47;5076499;28;20217;-86
2023/10/26 07:42:55;;;;;;;0.43;0.43;;;;;;;-145.69;63.96;52190.91;5076025;28;20233;-86
2023/10/26 07:45:21;;;;;;;0.80;0.45;;;;;;;-145.69;62.90;52230.50;5076478;28;20205;-87
2023/10/26 07:47:48;;;;;;;0.60;0.60;;;;;;;-145.69;63.03;52218.63;5076476;28;20206;-85
2023/10/26 07:50:17;;;;;;;0.32;0.32;;;;;;;-145.69;63.38;52204.75;5077189;28;20194;-87
2023/10/26 07:52:43;;;;;;;0.45;0.35;;;;;;;-145.69;62.86;52226.53;5078025;28;20199;-87
2023/10/26 07:55:10;;;;;;;0.65;0.40;;;;;;;-145.69;62.96;52186.94;5086972;28;20650;-86
2023/10/26 07:57:38;;;;;;;0.50;0.50;;;;;;;-145.69;63.36;52224.56;5075651;28;20195;-85
2023/10/26 08:00:07;;;;;;;0.60;0.50;;;;;;;-145.69;63.14;52188.91;5076601;28;20222;-85
2023/10/26 08:02:34;;;;;;;1.42;0.50;;;;;;;-145.69;63.11;52218.63;5090976;28;20202;-86
2023/10/26 08:05:01;;;;;;;1.25;0.50;;;;;;;-145.69;62.82;52167.13;5099233;28;20198;-88
2023/10/26 08:07:27;;;;;;;1.23;0.43;;;;;;;-145.69;63.05;52171.09;5094979;28;20203;-87
2023/10/26 08:09:54;;;;;;;0.70;0.40;;;;;;;-145.69;62.62;52182.97;5096429;28;20202;-86
2023/10/26 08:12:20;;;;;;;0.70;0.50;;;;;;;-145.69;62.01;52202.78;5094190;28;20203;-85
2023/10/26 08:14:48;;;;;;;0.45;0.45;;;;;;;-145.69;61.97;52220.59;5095122;28;20719;-84
2023/10/26 08:17:14;;;;;;;0.50;0.50;;;;;;;-145.69;62.24;52179.03;5095492;28;20641;-84
2023/10/26 08:19:41;;;;;;;0.55;0.50;;;;;;;-145.69;61.21;52179.03;5095163;28;20205;-84
2023/10/26 08:22:09;;;;;;;0.93;0.40;;;;;;;-145.69;61.86;52182.97;5095146;28;20198;-84
2023/10/26 08:24:35;;;;;;;0.90;0.40;;;;;;;-145.69;61.24;52169.13;5093064;28;20289;-84
2023/10/26 08:27:02;;;;;;;0.40;0.40;;;;;;;-145.69;60.89;52159.22;5095186;28;20198;-84
2023/10/26 08:29:29;;;;;;;0.40;0.40;;;;;;;-145.69;60.81;52204.75;5093756;28;20202;-84
2023/10/26 08:31:57;;;;;;;0.35;0.35;;;;;;;-145.69;60.06;52179.03;5093486;28;20194;-84
2023/10/26 08:34:23;;;;;;;0.30;0.30;;;;;;;-145.69;59.59;52173.09;5077660;28;20223;-84
2023/10/26 08:36:50;;;;;;;0.50;0.50;;;;;;;-145.69;59.20;52194.88;5074743;28;20199;-84
2023/10/26 08:39:17;;;;;;;0.40;0.40;;;;;;;-145.69;58.89;52173.09;5073155;28;20203;-84
2023/10/26 08:41:51;;;;;;;0.85;0.50;;;;;;;-145.69;58.46;52186.94;5072003;28;20206;-84
2023/10/26 08:44:18;;;;;;;0.75;0.40;;;;;;;-145.69;58.78;52171.09;5085501;28;20234;-85
2023/10/26 08:46:45;;;;;;;0.52;0.52;;;;;;;-145.69;58.91;52131.50;5074517;28;20253;-85
2023/10/26 08:49:15;;;;;;;0.50;0.50;;;;;;;-145.69;58.97;52159.22;5074579;28;20202;-85
2023/10/26 08:51:41;;;;;;;0.90;0.65;;;;;;;-145.69;58.97;52194.88;5074771;28;20201;-84
2023/10/26 08:54:08;;;;;;;1.38;0.43;;;;;;;-145.69;59.15;52181.00;5081463;28;20222;-85
2023/10/26 08:56:34;;;;;;;0.52;0.52;;;;;;;-145.69;59.15;52173.09;5074491;28;20194;-84
2023/10/26 08:59:03;;;;;;;0.30;0.30;;;;;;;-145.69;58.76;52171.09;5074410;28;20566;-85
2023/10/26 09:01:29;;;;;;;0.40;0.40;;;;;;;-145.69;58.81;52194.88;5074136;28;20195;-84
2023/10/26 09:03:56;;;;;;;0.40;0.40;;;;;;;-145.69;58.83;52186.94;5074364;28;20767;-84
2023/10/26 09:06:24;;;;;;;1.48;0.50;;;;;;;-145.69;58.98;52163.19;5074314;28;20360;-85
2023/10/26 09:09:00;;;;;;;0.40;0.40;;;;;;;-145.69;59.38;52155.25;5074280;28;20195;-85
2023/10/26 09:11:27;;;;;;;0.32;0.32;;;;;;;-145.69;59.32;52175.06;5074236;28;20230;-84
2023/10/26 09:13:53;;;;;;;0.40;0.40;;;;;;;-145.69;59.29;52167.13;5086823;28;20731;-85
2023/10/26 09:16:34;;;;;;;0.30;0.30;;;;;;;-145.69;58.53;52141.41;5094570;28;20225;-85
2023/10/26 09:19:01;;;;;;;0.40;0.40;;;;;;;-145.69;57.56;52159.22;5094417;28;20202;-85
2023/10/26 09:21:29;;;;;;;0.52;0.52;;;;;;;-145.69;57.92;52157.25;5094214;28;20198;-85
2023/10/26 09:23:55;;;;;;;0.70;0.40;;;;;;;-145.69;55.67;52163.19;5085394;28;20195;-85
2023/10/26 09:26:22;;;;;;;0.40;0.40;;;;;;;-145.69;55.63;52125.56;5074168;28;20285;-85
2023/10/26 09:28:50;;;;;;;0.52;0.30;;;;;;;-145.69;54.61;52123.56;5073558;28;20198;-85
2023/10/26 09:31:17;;;;;;;1.27;0.57;;;;;;;-145.69;54.17;52147.34;5072375;28;20202;-84
2023/10/26 09:33:44;;;;;;;1.73;0.50;;;;;;;-145.69;53.80;52135.47;5073690;28;20321;-85
2023/10/26 09:36:11;;;;;;;1.38;0.80;;;;;;;-145.69;53.95;52143.38;5074027;28;20228;-85
2023/10/26 09:38:39;;;;;;;1.67;0.98;;;;;;;-145.69;53.26;52117.63;5073726;28;20646;-85
2023/10/26 09:41:08;;;;;;;2.20;0.35;;;;;;;-145.69;53.16;52097.84;5073776;28;20207;-86
2023/10/26 09:43:35;;;;;;;1.75;0.43;;;;;;;-145.69;53.20;52119.63;5074043;28;20254;-85
2023/10/26 09:46:02;;;;;;;1.75;0.98;;;;;;;-145.69;53.32;52115.66;5073910;28;20198;-85
2023/10/26 09:48:28;;;;;;;1.08;0.55;;;;;;;-145.69;52.28;52141.41;5073598;28;20255;-86
2023/10/26 09:51:00;;;;;;;1.85;0.55;;;;;;;-145.69;51.86;52087.94;5074181;28;20199;-86
2023/10/26 09:53:30;;;;;;;2.78;0.68;;;;;;;-145.69;52.20;52103.78;5077918;28;20237;-86
2023/10/26 09:55:59;;;;;;;2.70;0.70;;;;;;;-145.69;52.29;52115.66;5073763;28;20230;-83
2023/10/26 09:58:28;;;;;;;2.20;0.60;;;;;;;-145.69;51.73;52139.41;5073989;28;20203;-86
2023/10/26 10:00:55;;;;;;;2.25;0.60;;;;;;;-145.69;51.60;52115.66;5073673;28;20199;-85
2023/10/26 10:03:21;;;;;;;2.78;1.10;;;;;;;-145.69;51.17;52135.47;5073838;28;20256;-86
2023/10/26 10:05:49;;;;;;;4.70;1.17;;;;;;;-145.69;49.88;52115.66;5073645;28;20198;-86
2023/10/26 10:08:59;;;;;;;2.38;0.80;;;;;;;-145.69;48.89;52137.44;5073469;28;20199;-86
2023/10/26 10:11:27;;;;;;;3.83;0.93;;;;;;;-145.69;49.13;52105.75;5073746;28;20201;-87
2023/10/26 10:13:54;;;;;;;4.90;0.85;;;;;;;-145.69;48.85;52115.66;5073508;28;20222;-86
2023/10/26 10:16:54;;;;;;;6.15;1.60;;;;;;;-145.69;49.11;52056.25;5073710;28;20202;-85
2023/10/26 10:19:20;;;;;;;6.32;1.20;;;;;;;-145.69;48.76;52099.81;5073831;28;20198;-86
2023/10/26 10:21:47;;;;;;;5.85;1.05;;;;;;;-145.69;48.05;52115.66;5073569;28;20624;-86
2023/10/26 10:24:47;;;;;;;5.40;1.17;;;;;;;-145.69;46.78;52113.66;5077034;28;20203;-86
2023/10/26 10:27:16;;;;;;;7.05;1.30;;;;;;;-145.69;46.41;52091.88;5077578;28;20205;-86
2023/10/26 10:29:43;;;;;;;4.22;1.27;;;;;;;-145.69;47.23;52099.81;5093901;28;20649;-87
2023/10/26 10:32:11;;;;;;;5.47;1.05;;;;;;;-145.69;46.64;52099.81;5093492;28;20213;-87
2023/10/26 10:34:43;;;;;;;5.40;1.23;;;;;;;-145.69;46.76;52091.88;5093509;28;20561;-87
2023/10/26 10:37:17;;;;;;;6.00;1.20;;;;;;;-145.69;46.84;52101.78;5093607;28;20206;-85
2023/10/26 10:40:12;;;;;;;11.52;1.50;;;;;;;-145.69;43.98;52109.72;5093510;28;20221;-87
2023/10/26 10:42:41;;;;;;;8.63;1.15;;;;;;;-145.69;44.84;52083.97;5069256;28;20698;-85
2023/10/26 10:45:12;;;;;;;7.40;1.30;;;;;;;-145.69;44.72;52087.94;5053315;28;20662;-85
2023/10/26 10:47:38;;;;;;;4.50;1.20;;;;;;;-145.69;44.41;52068.13;5053459;28;20226;-86
2023/10/26 10:50:15;;;;;;;7.65;1.52;;;;;;;-145.69;44.29;52054.25;5053031;28;20218;-86
2023/10/26 10:52:42;;;;;;;7.45;1.10;;;;;;;-145.69;43.56;52056.25;5072299;28;20206;-85
2023/10/26 10:55:09;;;;;;;6.28;1.13;;;;;;;-145.69;43.10;52038.44;5090308;28;20233;-87
2023/10/26 10:57:36;;;;;;;8.23;1.75;;;;;;;-145.69;43.51;52060.22;5093313;28;20213;-87
2023/10/26 11:00:04;;;;;;;9.10;1.40;;;;;;;-145.69;43.25;52056.25;5093398;28;20202;-86
2023/10/26 11:02:30;;;;;;;10.52;1.88;;;;;;;-145.69;42.03;52060.22;5093457;28;20801;-86
2023/10/26 11:04:58;;;;;;;6.63;1.75;;;;;;;-145.69;41.75;52030.50;5093413;28;20227;-86
2023/10/26 11:07:26;;;;;;;6.80;1.60;;;;;;;-145.69;41.98;52032.47;5094627;28;20213;-84
2023/10/26 11:09:56;;;;;;;4.88;1.40;;;;;;;-145.69;42.08;52048.31;5097015;28;20263;-86
2023/10/26 11:12:23;;;;;;;6.55;1.40;;;;;;;-145.69;41.73;52036.44;5096997;28;20267;-86
2023/10/26 11:14:50;;;;;;;6.15;1.30;;;;;;;-145.69;41.54;52064.16;5096838;28;20236;-86
2023/10/26 11:17:18;;;;;;;7.38;1.35;;;;;;;-145.69;42.27;52052.28;5096577;28;20289;-85
2023/10/26 11:19:45;;;;;;;18.20;1.40;;;;;;;-145.69;41.85;52068.13;5096581;28;20202;-85